NJE300 UHNN-UHMM
Flight info
| Callsign | NJE300 |
|---|---|
| Flight time | 1h 21m |
| Altitude | 37000 |
| Route | KIZON1F KIZON L160 OKRUS A218 BANOT BANOT5J |
| Aircraft | A20N/M-SDE2E3FGHIRWXY/LB1 |
Departure
| Time | 2026-04-29 05:05 |
|---|---|
| Airport | Nikolayevsk-na-Amure Airport (UHNN) |
Arrival
| Time | 2026-04-29 06:27 |
|---|---|
| Airport | Sokol Airport (UHMM) |
| Time | Latitude | Longitude | Altitude | Speed | Heading |
|---|---|---|---|---|---|
| 2026-04-29 05:01 | 53.15184 | 140.66027 | 235 ft | 0 kts | 184° |
| 2026-04-29 05:03 | 53.15176 | 140.66029 | 239 ft | 2 kts | 166° |
| 2026-04-29 05:03 | 53.15167 | 140.66079 | 243 ft | 6 kts | 95° |
| 2026-04-29 05:03 | 53.15162 | 140.66159 | 243 ft | 8 kts | 95° |
| 2026-04-29 05:03 | 53.15157 | 140.66255 | 241 ft | 10 kts | 95° |
| 2026-04-29 05:04 | 53.15153 | 140.66396 | 243 ft | 13 kts | 81° |
| 2026-04-29 05:04 | 53.15226 | 140.66474 | 244 ft | 14 kts | 4° |
| 2026-04-29 05:04 | 53.15326 | 140.66488 | 245 ft | 9 kts | 4° |
| 2026-04-29 05:04 | 53.15354 | 140.66450 | 245 ft | 1 kts | 274° |
| 2026-04-29 05:05 | 53.15359 | 140.66341 | 247 ft | 37 kts | 275° |
| 2026-04-29 05:05 | 53.15411 | 140.65410 | 226 ft | 120 kts | 274° |
| 2026-04-29 05:05 | 53.15500 | 140.63801 | 575 ft | 143 kts | 275° |
| 2026-04-29 05:05 | 53.15589 | 140.62145 | 1376 ft | 145 kts | 275° |
| 2026-04-29 05:06 | 53.15674 | 140.60441 | 2179 ft | 152 kts | 276° |
| 2026-04-29 05:06 | 53.15774 | 140.58604 | 2682 ft | 168 kts | 278° |
| 2026-04-29 05:06 | 53.16295 | 140.56788 | 3102 ft | 187 kts | 316° |
| 2026-04-29 05:06 | 53.17514 | 140.55810 | 3585 ft | 208 kts | 352° |
| 2026-04-29 05:07 | 53.18972 | 140.56218 | 4055 ft | 230 kts | 26° |
| 2026-04-29 05:07 | 53.20264 | 140.57981 | 4532 ft | 253 kts | 47° |
| 2026-04-29 05:07 | 53.21455 | 140.60274 | 5221 ft | 266 kts | 48° |
| 2026-04-29 05:07 | 53.22723 | 140.62555 | 6163 ft | 270 kts | 44° |
| 2026-04-29 05:08 | 53.24100 | 140.64715 | 7085 ft | 272 kts | 40° |
| 2026-04-29 05:08 | 53.25551 | 140.66783 | 8058 ft | 274 kts | 37° |
| 2026-04-29 05:08 | 53.27043 | 140.68799 | 9005 ft | 277 kts | 36° |
| 2026-04-29 05:08 | 53.28565 | 140.70819 | 9953 ft | 280 kts | 36° |
| 2026-04-29 05:09 | 53.30111 | 140.72866 | 10499 ft | 297 kts | 36° |
| 2026-04-29 05:09 | 53.31792 | 140.75094 | 10808 ft | 319 kts | 36° |
| 2026-04-29 05:09 | 53.33576 | 140.77471 | 11329 ft | 332 kts | 36° |
| 2026-04-29 05:09 | 53.35391 | 140.79903 | 12151 ft | 336 kts | 36° |
| 2026-04-29 05:10 | 53.37230 | 140.82372 | 12945 ft | 341 kts | 35° |
| 2026-04-29 05:10 | 53.39096 | 140.84877 | 13753 ft | 345 kts | 35° |
| 2026-04-29 05:10 | 53.40979 | 140.87405 | 14471 ft | 349 kts | 35° |
| 2026-04-29 05:10 | 53.42883 | 140.89960 | 15181 ft | 353 kts | 35° |
| 2026-04-29 05:11 | 53.44817 | 140.92558 | 15891 ft | 357 kts | 35° |
| 2026-04-29 05:11 | 53.46766 | 140.95180 | 16573 ft | 361 kts | 36° |
| 2026-04-29 05:11 | 53.48711 | 140.97800 | 17254 ft | 365 kts | 36° |
| 2026-04-29 05:11 | 53.50704 | 141.00489 | 17914 ft | 370 kts | 36° |
| 2026-04-29 05:12 | 53.52720 | 141.03213 | 18523 ft | 374 kts | 36° |
| 2026-04-29 05:12 | 53.54758 | 141.05970 | 19096 ft | 378 kts | 36° |
| 2026-04-29 05:12 | 53.56815 | 141.08757 | 19663 ft | 382 kts | 36° |
| 2026-04-29 05:12 | 53.58895 | 141.11580 | 20224 ft | 386 kts | 36° |
| 2026-04-29 05:13 | 53.60998 | 141.14437 | 20782 ft | 390 kts | 36° |
| 2026-04-29 05:13 | 53.63117 | 141.17320 | 21332 ft | 394 kts | 36° |
| 2026-04-29 05:13 | 53.65262 | 141.20243 | 21887 ft | 397 kts | 36° |
| 2026-04-29 05:13 | 53.67453 | 141.23109 | 22429 ft | 399 kts | 31° |
| 2026-04-29 05:14 | 53.69804 | 141.25607 | 23027 ft | 401 kts | 28° |
| 2026-04-29 05:14 | 53.72181 | 141.28110 | 23537 ft | 405 kts | 28° |
| 2026-04-29 05:14 | 53.74575 | 141.30644 | 24018 ft | 407 kts | 28° |
| 2026-04-29 05:14 | 53.76979 | 141.33192 | 24516 ft | 409 kts | 28° |
| 2026-04-29 05:15 | 53.79401 | 141.35763 | 24986 ft | 411 kts | 29° |
| 2026-04-29 05:15 | 53.81794 | 141.38306 | 25437 ft | 413 kts | 29° |
| 2026-04-29 05:15 | 53.84236 | 141.40905 | 25899 ft | 415 kts | 29° |
| 2026-04-29 05:15 | 53.86687 | 141.43517 | 26343 ft | 417 kts | 29° |
| 2026-04-29 05:16 | 53.89154 | 141.46150 | 26769 ft | 420 kts | 29° |
| 2026-04-29 05:16 | 53.91637 | 141.48803 | 27192 ft | 422 kts | 29° |
| 2026-04-29 05:16 | 53.94125 | 141.51466 | 27610 ft | 425 kts | 29° |
| 2026-04-29 05:16 | 53.96631 | 141.54151 | 27968 ft | 427 kts | 29° |
| 2026-04-29 05:17 | 53.99161 | 141.56867 | 28373 ft | 429 kts | 30° |
| 2026-04-29 05:17 | 54.01695 | 141.59591 | 28731 ft | 432 kts | 30° |
| 2026-04-29 05:17 | 54.04238 | 141.62330 | 29098 ft | 434 kts | 30° |
| 2026-04-29 05:17 | 54.06798 | 141.65091 | 29446 ft | 436 kts | 30° |
| 2026-04-29 05:18 | 54.09365 | 141.67859 | 29790 ft | 438 kts | 30° |
| 2026-04-29 05:18 | 54.11953 | 141.70655 | 30117 ft | 440 kts | 30° |
| 2026-04-29 05:18 | 54.14511 | 141.73424 | 30382 ft | 442 kts | 30° |
| 2026-04-29 05:18 | 54.17119 | 141.76252 | 30650 ft | 445 kts | 30° |
| 2026-04-29 05:19 | 54.19740 | 141.79100 | 30903 ft | 448 kts | 30° |
| 2026-04-29 05:19 | 54.22372 | 141.81963 | 31279 ft | 447 kts | 30° |
| 2026-04-29 05:19 | 54.24994 | 141.84822 | 31684 ft | 446 kts | 30° |
| 2026-04-29 05:19 | 54.27609 | 141.87677 | 32015 ft | 446 kts | 30° |
| 2026-04-29 05:20 | 54.30228 | 141.90542 | 32353 ft | 446 kts | 30° |
| 2026-04-29 05:20 | 54.32841 | 141.93404 | 32688 ft | 446 kts | 30° |
| 2026-04-29 05:20 | 54.35457 | 141.96274 | 33006 ft | 446 kts | 30° |
| 2026-04-29 05:20 | 54.38070 | 141.99144 | 33331 ft | 446 kts | 30° |
| 2026-04-29 05:21 | 54.40680 | 142.02016 | 33647 ft | 446 kts | 30° |
| 2026-04-29 05:21 | 54.43300 | 142.04902 | 33948 ft | 447 kts | 30° |
| 2026-04-29 05:21 | 54.45882 | 142.07751 | 34157 ft | 447 kts | 30° |
| 2026-04-29 05:21 | 54.48502 | 142.10647 | 34397 ft | 447 kts | 30° |
| 2026-04-29 05:22 | 54.51119 | 142.13543 | 34622 ft | 447 kts | 30° |
| 2026-04-29 05:22 | 54.53735 | 142.16443 | 34849 ft | 447 kts | 31° |
| 2026-04-29 05:22 | 54.56350 | 142.19348 | 35064 ft | 448 kts | 31° |
| 2026-04-29 05:22 | 54.58979 | 142.22271 | 35274 ft | 448 kts | 31° |
| 2026-04-29 05:23 | 54.61600 | 142.25191 | 35479 ft | 448 kts | 31° |
| 2026-04-29 05:23 | 54.64224 | 142.28118 | 35679 ft | 448 kts | 31° |
| 2026-04-29 05:23 | 54.66850 | 142.31052 | 35876 ft | 449 kts | 31° |
| 2026-04-29 05:23 | 54.69477 | 142.33990 | 36052 ft | 450 kts | 31° |
| 2026-04-29 05:24 | 54.72102 | 142.36932 | 36259 ft | 450 kts | 31° |
| 2026-04-29 05:24 | 54.74732 | 142.39885 | 36434 ft | 450 kts | 31° |
| 2026-04-29 05:24 | 54.77349 | 142.42827 | 36665 ft | 448 kts | 31° |
| 2026-04-29 05:24 | 54.79933 | 142.45737 | 36839 ft | 449 kts | 31° |
| 2026-04-29 05:25 | 54.82559 | 142.48698 | 36980 ft | 449 kts | 31° |
| 2026-04-29 05:25 | 54.87801 | 142.54624 | 36977 ft | 448 kts | 31° |
| 2026-04-29 05:26 | 54.92996 | 142.60515 | 36986 ft | 451 kts | 31° |
| 2026-04-29 05:26 | 54.98313 | 142.66560 | 36974 ft | 460 kts | 31° |
| 2026-04-29 05:27 | 55.03701 | 142.72708 | 36977 ft | 466 kts | 31° |
| 2026-04-29 05:27 | 55.11841 | 142.82039 | 36979 ft | 466 kts | 31° |
| 2026-04-29 05:28 | 55.17262 | 142.88276 | 36994 ft | 466 kts | 31° |
| 2026-04-29 05:28 | 55.22689 | 142.94540 | 36979 ft | 467 kts | 32° |
| 2026-04-29 05:29 | 55.28056 | 143.00859 | 36980 ft | 467 kts | 32° |
| 2026-04-29 05:29 | 55.33445 | 143.07229 | 36979 ft | 466 kts | 32° |
| 2026-04-29 05:30 | 55.38827 | 143.13601 | 36982 ft | 466 kts | 32° |
| 2026-04-29 05:30 | 55.44215 | 143.19997 | 36983 ft | 467 kts | 32° |
| 2026-04-29 05:31 | 55.49603 | 143.26414 | 36980 ft | 467 kts | 32° |
| 2026-04-29 05:31 | 55.54986 | 143.32848 | 36980 ft | 467 kts | 32° |
| 2026-04-29 05:32 | 55.60365 | 143.39299 | 36980 ft | 467 kts | 32° |
| 2026-04-29 05:32 | 55.65704 | 143.45724 | 36980 ft | 467 kts | 32° |
| 2026-04-29 05:33 | 55.71087 | 143.52222 | 36979 ft | 468 kts | 33° |
| 2026-04-29 05:33 | 55.76462 | 143.58734 | 36979 ft | 468 kts | 33° |
| 2026-04-29 05:34 | 55.81840 | 143.65273 | 36979 ft | 468 kts | 33° |
| 2026-04-29 05:34 | 55.87211 | 143.71823 | 36979 ft | 467 kts | 33° |
| 2026-04-29 05:35 | 55.92573 | 143.78384 | 36989 ft | 467 kts | 33° |
| 2026-04-29 05:35 | 55.97916 | 143.84946 | 36979 ft | 468 kts | 33° |
| 2026-04-29 05:36 | 56.03280 | 143.91557 | 36979 ft | 468 kts | 33° |
| 2026-04-29 05:36 | 56.08636 | 143.98180 | 36979 ft | 468 kts | 33° |
| 2026-04-29 05:37 | 56.13988 | 144.04820 | 36980 ft | 468 kts | 33° |
| 2026-04-29 05:37 | 56.19339 | 144.11483 | 36981 ft | 468 kts | 33° |
| 2026-04-29 05:38 | 56.23788 | 144.17039 | 36979 ft | 468 kts | 33° |
| 2026-04-29 05:38 | 56.29998 | 144.24822 | 36979 ft | 468 kts | 33° |
| 2026-04-29 05:39 | 56.35301 | 144.31655 | 36979 ft | 468 kts | 34° |
| 2026-04-29 05:39 | 56.39700 | 144.37363 | 36979 ft | 468 kts | 34° |
| 2026-04-29 05:40 | 56.44988 | 144.44214 | 36982 ft | 467 kts | 34° |
| 2026-04-29 05:40 | 56.50264 | 144.51071 | 36981 ft | 467 kts | 34° |
| 2026-04-29 05:41 | 56.55543 | 144.57959 | 36976 ft | 467 kts | 34° |
| 2026-04-29 05:41 | 56.60813 | 144.64860 | 36976 ft | 467 kts | 34° |
| 2026-04-29 05:42 | 56.66058 | 144.71752 | 36985 ft | 467 kts | 34° |
| 2026-04-29 05:42 | 56.71330 | 144.78707 | 36974 ft | 468 kts | 35° |
| 2026-04-29 05:43 | 56.76609 | 144.85692 | 36971 ft | 468 kts | 35° |
| 2026-04-29 05:43 | 56.81877 | 144.92687 | 36969 ft | 468 kts | 35° |
| 2026-04-29 05:44 | 56.87111 | 144.99664 | 36969 ft | 468 kts | 35° |
| 2026-04-29 05:44 | 56.92381 | 145.06712 | 36968 ft | 468 kts | 35° |
| 2026-04-29 05:45 | 56.97635 | 145.13767 | 36966 ft | 468 kts | 35° |
| 2026-04-29 05:45 | 57.02880 | 145.20831 | 36966 ft | 467 kts | 36° |
| 2026-04-29 05:46 | 57.08118 | 145.27913 | 36966 ft | 467 kts | 36° |
| 2026-04-29 05:46 | 57.13314 | 145.34964 | 36963 ft | 467 kts | 36° |
| 2026-04-29 05:47 | 57.18546 | 145.42088 | 36964 ft | 467 kts | 36° |
| 2026-04-29 05:47 | 57.23773 | 145.49232 | 36960 ft | 468 kts | 36° |
| 2026-04-29 05:48 | 57.28994 | 145.56392 | 36960 ft | 467 kts | 36° |
| 2026-04-29 05:48 | 57.34211 | 145.63575 | 36955 ft | 467 kts | 36° |
| 2026-04-29 05:49 | 57.39428 | 145.70782 | 36955 ft | 468 kts | 36° |
| 2026-04-29 05:49 | 57.44646 | 145.78014 | 36953 ft | 468 kts | 36° |
| 2026-04-29 05:50 | 57.49863 | 145.85277 | 36952 ft | 467 kts | 36° |
| 2026-04-29 05:50 | 57.55047 | 145.92520 | 36950 ft | 466 kts | 36° |
| 2026-04-29 05:51 | 57.60209 | 145.99755 | 36949 ft | 466 kts | 37° |
| 2026-04-29 05:51 | 57.65399 | 146.07057 | 36947 ft | 467 kts | 37° |
| 2026-04-29 05:52 | 57.70582 | 146.14377 | 36944 ft | 466 kts | 37° |
| 2026-04-29 05:52 | 57.75761 | 146.21716 | 36944 ft | 468 kts | 37° |
| 2026-04-29 05:53 | 57.80927 | 146.29068 | 36943 ft | 465 kts | 36° |
| 2026-04-29 05:53 | 57.86110 | 146.36455 | 36939 ft | 469 kts | 37° |
| 2026-04-29 05:54 | 57.91259 | 146.43840 | 36938 ft | 468 kts | 37° |
| 2026-04-29 05:54 | 57.96415 | 146.51251 | 36936 ft | 464 kts | 37° |
| 2026-04-29 05:55 | 58.01552 | 146.58674 | 36930 ft | 465 kts | 37° |
| 2026-04-29 05:55 | 58.06703 | 146.66148 | 36931 ft | 469 kts | 37° |
| 2026-04-29 05:56 | 58.11869 | 146.73659 | 36925 ft | 468 kts | 38° |
| 2026-04-29 05:56 | 58.16983 | 146.81116 | 36924 ft | 466 kts | 38° |
| 2026-04-29 05:57 | 58.22133 | 146.88668 | 36925 ft | 468 kts | 38° |
| 2026-04-29 05:57 | 58.27282 | 146.96245 | 36925 ft | 468 kts | 38° |
| 2026-04-29 05:58 | 58.32428 | 147.03844 | 36922 ft | 468 kts | 38° |
| 2026-04-29 05:58 | 58.37563 | 147.11456 | 36922 ft | 467 kts | 38° |
| 2026-04-29 05:59 | 58.42659 | 147.19038 | 36915 ft | 468 kts | 38° |
| 2026-04-29 05:59 | 58.47797 | 147.26710 | 36919 ft | 468 kts | 38° |
| 2026-04-29 06:00 | 58.52920 | 147.34391 | 36922 ft | 467 kts | 38° |
| 2026-04-29 06:00 | 58.58040 | 147.42098 | 36922 ft | 468 kts | 38° |
| 2026-04-29 06:01 | 58.63154 | 147.49824 | 36917 ft | 468 kts | 39° |
| 2026-04-29 06:01 | 58.68272 | 147.57583 | 36917 ft | 468 kts | 39° |
| 2026-04-29 06:02 | 58.73371 | 147.65332 | 36910 ft | 466 kts | 39° |
| 2026-04-29 06:02 | 58.78372 | 147.72962 | 36910 ft | 451 kts | 39° |
| 2026-04-29 06:03 | 58.83233 | 147.80443 | 36573 ft | 448 kts | 39° |
| 2026-04-29 06:03 | 58.85681 | 147.84216 | 36028 ft | 451 kts | 39° |
| 2026-04-29 06:03 | 58.88139 | 147.88010 | 35346 ft | 453 kts | 39° |
| 2026-04-29 06:04 | 58.90610 | 147.91827 | 34556 ft | 455 kts | 39° |
| 2026-04-29 06:04 | 58.93093 | 147.95671 | 33780 ft | 456 kts | 40° |
| 2026-04-29 06:04 | 58.95564 | 147.99500 | 32980 ft | 453 kts | 40° |
| 2026-04-29 06:04 | 58.98028 | 148.03323 | 32239 ft | 450 kts | 41° |
| 2026-04-29 06:05 | 59.00462 | 148.07106 | 31500 ft | 447 kts | 41° |
| 2026-04-29 06:05 | 59.02843 | 148.10813 | 30924 ft | 441 kts | 41° |
| 2026-04-29 06:05 | 59.05220 | 148.14520 | 30381 ft | 435 kts | 42° |
| 2026-04-29 06:05 | 59.07567 | 148.18190 | 29806 ft | 429 kts | 43° |
| 2026-04-29 06:06 | 59.09870 | 148.21801 | 29241 ft | 421 kts | 43° |
| 2026-04-29 06:06 | 59.12131 | 148.25352 | 28708 ft | 414 kts | 43° |
| 2026-04-29 06:06 | 59.14354 | 148.28850 | 28182 ft | 407 kts | 43° |
| 2026-04-29 06:06 | 59.16540 | 148.32296 | 27660 ft | 400 kts | 43° |
| 2026-04-29 06:07 | 59.18682 | 148.35676 | 27147 ft | 393 kts | 43° |
| 2026-04-29 06:07 | 59.20794 | 148.39014 | 26629 ft | 388 kts | 43° |
| 2026-04-29 06:07 | 59.22849 | 148.42273 | 26221 ft | 382 kts | 44° |
| 2026-04-29 06:07 | 59.24918 | 148.45561 | 25743 ft | 382 kts | 44° |
| 2026-04-29 06:08 | 59.26978 | 148.48840 | 25209 ft | 380 kts | 44° |
| 2026-04-29 06:08 | 59.29022 | 148.52088 | 24671 ft | 376 kts | 43° |
| 2026-04-29 06:08 | 59.31039 | 148.55299 | 24178 ft | 371 kts | 44° |
| 2026-04-29 06:08 | 59.33031 | 148.58482 | 23663 ft | 368 kts | 44° |
| 2026-04-29 06:09 | 59.35009 | 148.61652 | 23097 ft | 364 kts | 43° |
| 2026-04-29 06:09 | 59.36954 | 148.64775 | 22590 ft | 359 kts | 43° |
| 2026-04-29 06:09 | 59.38872 | 148.67857 | 22092 ft | 354 kts | 43° |
| 2026-04-29 06:09 | 59.40764 | 148.70902 | 21601 ft | 349 kts | 43° |
| 2026-04-29 06:10 | 59.42608 | 148.73874 | 21096 ft | 345 kts | 43° |
| 2026-04-29 06:10 | 59.44447 | 148.76842 | 20631 ft | 340 kts | 43° |
| 2026-04-29 06:10 | 59.46270 | 148.79788 | 20157 ft | 337 kts | 42° |
| 2026-04-29 06:10 | 59.48072 | 148.82705 | 19690 ft | 334 kts | 42° |
| 2026-04-29 06:11 | 59.49910 | 148.85688 | 19200 ft | 355 kts | 41° |
| 2026-04-29 06:11 | 59.51868 | 148.88876 | 18685 ft | 372 kts | 41° |
| 2026-04-29 06:11 | 59.53879 | 148.92144 | 18143 ft | 377 kts | 41° |
| 2026-04-29 06:11 | 59.55902 | 148.95432 | 17574 ft | 375 kts | 41° |
| 2026-04-29 06:12 | 59.57897 | 148.98674 | 17029 ft | 369 kts | 41° |
| 2026-04-29 06:12 | 59.59860 | 149.01869 | 16517 ft | 362 kts | 41° |
| 2026-04-29 06:12 | 59.61788 | 149.05017 | 16005 ft | 356 kts | 41° |
| 2026-04-29 06:12 | 59.63685 | 149.08119 | 15494 ft | 351 kts | 41° |
| 2026-04-29 06:13 | 59.65556 | 149.11187 | 14998 ft | 347 kts | 41° |
| 2026-04-29 06:13 | 59.67256 | 149.14498 | 14503 ft | 341 kts | 51° |
| 2026-04-29 06:13 | 59.68638 | 149.18267 | 14013 ft | 336 kts | 60° |
| 2026-04-29 06:13 | 59.69736 | 149.22310 | 13517 ft | 332 kts | 63° |
| 2026-04-29 06:14 | 59.70809 | 149.26330 | 13029 ft | 327 kts | 63° |
| 2026-04-29 06:14 | 59.71870 | 149.30272 | 12562 ft | 323 kts | 63° |
| 2026-04-29 06:14 | 59.72920 | 149.34179 | 12096 ft | 319 kts | 63° |
| 2026-04-29 06:14 | 59.73955 | 149.38038 | 11645 ft | 315 kts | 63° |
| 2026-04-29 06:15 | 59.74976 | 149.41861 | 11197 ft | 312 kts | 63° |
| 2026-04-29 06:15 | 59.75972 | 149.45600 | 10765 ft | 309 kts | 63° |
| 2026-04-29 06:15 | 59.76971 | 149.49355 | 10403 ft | 303 kts | 63° |
| 2026-04-29 06:15 | 59.77935 | 149.52986 | 10272 ft | 290 kts | 63° |
| 2026-04-29 06:16 | 59.78858 | 149.56465 | 10096 ft | 280 kts | 63° |
| 2026-04-29 06:16 | 59.79751 | 149.59834 | 9884 ft | 272 kts | 63° |
| 2026-04-29 06:16 | 59.80635 | 149.63179 | 9754 ft | 275 kts | 63° |
| 2026-04-29 06:16 | 59.81523 | 149.66546 | 9490 ft | 276 kts | 63° |
| 2026-04-29 06:17 | 59.82412 | 149.69916 | 9132 ft | 273 kts | 62° |
| 2026-04-29 06:17 | 59.83301 | 149.73220 | 8758 ft | 269 kts | 62° |
| 2026-04-29 06:17 | 59.84165 | 149.76495 | 8423 ft | 266 kts | 63° |
| 2026-04-29 06:17 | 59.85005 | 149.79747 | 8069 ft | 263 kts | 63° |
| 2026-04-29 06:18 | 59.85836 | 149.82961 | 7722 ft | 259 kts | 63° |
| 2026-04-29 06:18 | 59.86659 | 149.86132 | 7387 ft | 257 kts | 62° |
| 2026-04-29 06:18 | 59.87481 | 149.89278 | 7046 ft | 254 kts | 62° |
| 2026-04-29 06:18 | 59.88291 | 149.92385 | 6709 ft | 252 kts | 62° |
| 2026-04-29 06:19 | 59.89092 | 149.95471 | 6375 ft | 250 kts | 62° |
| 2026-04-29 06:19 | 59.89890 | 149.98540 | 6021 ft | 248 kts | 62° |
| 2026-04-29 06:19 | 59.90680 | 150.01579 | 5691 ft | 246 kts | 62° |
| 2026-04-29 06:19 | 59.91451 | 150.04550 | 5361 ft | 244 kts | 62° |
| 2026-04-29 06:20 | 59.92212 | 150.07561 | 5036 ft | 243 kts | 65° |
| 2026-04-29 06:20 | 59.92674 | 150.10782 | 4722 ft | 242 kts | 81° |
| 2026-04-29 06:20 | 59.92767 | 150.14124 | 4389 ft | 241 kts | 89° |
| 2026-04-29 06:20 | 59.92684 | 150.17458 | 4063 ft | 240 kts | 93° |
| 2026-04-29 06:21 | 59.92572 | 150.20761 | 3787 ft | 237 kts | 92° |
| 2026-04-29 06:21 | 59.92504 | 150.22977 | 3732 ft | 243 kts | 92° |
| 2026-04-29 06:21 | 59.92405 | 150.26164 | 3704 ft | 215 kts | 92° |
| 2026-04-29 06:21 | 59.92297 | 150.29755 | 3757 ft | 183 kts | 91° |
| 2026-04-29 06:22 | 59.92223 | 150.32317 | 3714 ft | 184 kts | 92° |
| 2026-04-29 06:22 | 59.92172 | 150.34023 | 3583 ft | 180 kts | 92° |
| 2026-04-29 06:22 | 59.92099 | 150.36501 | 3508 ft | 184 kts | 92° |
| 2026-04-29 06:22 | 59.92024 | 150.39027 | 3415 ft | 182 kts | 92° |
| 2026-04-29 06:23 | 59.91949 | 150.41561 | 3324 ft | 184 kts | 92° |
| 2026-04-29 06:23 | 59.91876 | 150.44091 | 3108 ft | 182 kts | 92° |
| 2026-04-29 06:23 | 59.91803 | 150.46608 | 2873 ft | 181 kts | 92° |
| 2026-04-29 06:23 | 59.91731 | 150.49115 | 2626 ft | 181 kts | 92° |
| 2026-04-29 06:24 | 59.91660 | 150.51606 | 2367 ft | 180 kts | 92° |
| 2026-04-29 06:24 | 59.91590 | 150.54103 | 2079 ft | 177 kts | 92° |
| 2026-04-29 06:24 | 59.91523 | 150.56463 | 1806 ft | 162 kts | 92° |
| 2026-04-29 06:24 | 59.91463 | 150.58570 | 1584 ft | 144 kts | 92° |
| 2026-04-29 06:25 | 59.91410 | 150.60507 | 1387 ft | 139 kts | 92° |
| 2026-04-29 06:25 | 59.91358 | 150.62423 | 1217 ft | 138 kts | 92° |
| 2026-04-29 06:25 | 59.91305 | 150.64318 | 1039 ft | 136 kts | 93° |
| 2026-04-29 06:25 | 59.91252 | 150.66186 | 868 ft | 137 kts | 93° |
| 2026-04-29 06:26 | 59.91202 | 150.68059 | 686 ft | 133 kts | 93° |
| 2026-04-29 06:26 | 59.91155 | 150.69907 | 573 ft | 130 kts | 94° |
| 2026-04-29 06:26 | 59.91116 | 150.71283 | 579 ft | 72 kts | 92° |
| 2026-04-29 06:26 | 59.91091 | 150.72204 | 579 ft | 62 kts | 93° |
| 2026-04-29 06:27 | 59.91080 | 150.72833 | 585 ft | 25 kts | 80° |
| 2026-04-29 06:27 | 59.91172 | 150.73127 | 585 ft | 26 kts | 51° |
| 2026-04-29 06:27 | 59.91234 | 150.73283 | 586 ft | 14 kts | 55° |
| 2026-04-29 06:27 | 59.91288 | 150.73453 | 586 ft | 15 kts | 36° |
| 2026-04-29 06:28 | 59.91349 | 150.73405 | 586 ft | 10 kts | 276° |
| 2026-04-29 06:28 | 59.91325 | 150.73348 | 586 ft | 6 kts | 180° |
| 2026-04-29 06:28 | 59.91323 | 150.73348 | 586 ft | 0 kts | 180° |